sensor_id;sensor_type;location;lat;lon;timestamp;P1;durP1;ratioP1;P2;durP2;ratioP2
19883;SDS011;10104;50.732;10.174;2022-11-21T00:00:28;4.30;;;2.40;;
19883;SDS011;10104;50.732;10.174;2022-11-21T00:02:51;2.03;;;1.70;;
19883;SDS011;10104;50.732;10.174;2022-11-21T00:05:12;3.07;;;1.90;;
19883;SDS011;10104;50.732;10.174;2022-11-21T00:07:34;3.23;;;1.87;;
19883;SDS011;10104;50.732;10.174;2022-11-21T00:09:55;1.90;;;1.43;;
19883;SDS011;10104;50.732;10.174;2022-11-21T00:12:17;3.23;;;1.30;;
19883;SDS011;10104;50.732;10.174;2022-11-21T00:14:38;2.10;;;1.30;;
19883;SDS011;10104;50.732;10.174;2022-11-21T00:17:00;1.97;;;1.27;;
19883;SDS011;10104;50.732;10.174;2022-11-21T00:19:21;2.80;;;1.40;;
19883;SDS011;10104;50.732;10.174;2022-11-21T00:21:43;2.67;;;1.60;;
19883;SDS011;10104;50.732;10.174;2022-11-21T00:24:04;2.97;;;1.60;;
19883;SDS011;10104;50.732;10.174;2022-11-21T00:26:26;3.10;;;1.60;;
19883;SDS011;10104;50.732;10.174;2022-11-21T00:28:47;2.63;;;1.60;;
19883;SDS011;10104;50.732;10.174;2022-11-21T00:31:16;5.57;;;1.87;;
19883;SDS011;10104;50.732;10.174;2022-11-21T00:33:39;2.90;;;1.60;;
19883;SDS011;10104;50.732;10.174;2022-11-21T00:36:07;2.63;;;1.63;;
19883;SDS011;10104;50.732;10.174;2022-11-21T00:38:29;4.43;;;1.67;;
19883;SDS011;10104;50.732;10.174;2022-11-21T00:40:51;2.27;;;1.57;;
19883;SDS011;10104;50.732;10.174;2022-11-21T00:43:12;3.70;;;1.80;;
19883;SDS011;10104;50.732;10.174;2022-11-21T00:45:34;3.83;;;1.50;;
19883;SDS011;10104;50.732;10.174;2022-11-21T00:47:55;5.27;;;1.70;;
19883;SDS011;10104;50.732;10.174;2022-11-21T00:50:17;5.27;;;1.60;;
19883;SDS011;10104;50.732;10.174;2022-11-21T00:52:38;2.23;;;1.20;;
19883;SDS011;10104;50.732;10.174;2022-11-21T00:55:00;3.73;;;1.07;;
19883;SDS011;10104;50.732;10.174;2022-11-21T00:57:21;5.20;;;1.70;;
19883;SDS011;10104;50.732;10.174;2022-11-21T00:59:42;4.03;;;1.50;;
19883;SDS011;10104;50.732;10.174;2022-11-21T01:02:04;2.13;;;1.37;;
19883;SDS011;10104;50.732;10.174;2022-11-21T01:04:29;3.20;;;1.70;;
19883;SDS011;10104;50.732;10.174;2022-11-21T01:06:51;2.23;;;1.07;;
19883;SDS011;10104;50.732;10.174;2022-11-21T01:09:13;4.60;;;1.10;;
19883;SDS011;10104;50.732;10.174;2022-11-21T01:11:34;3.00;;;1.10;;
19883;SDS011;10104;50.732;10.174;2022-11-21T01:13:56;2.70;;;1.17;;
19883;SDS011;10104;50.732;10.174;2022-11-21T01:16:19;5.90;;;1.50;;
19883;SDS011;10104;50.732;10.174;2022-11-21T01:18:42;2.67;;;1.30;;
19883;SDS011;10104;50.732;10.174;2022-11-21T01:21:06;3.53;;;1.33;;
19883;SDS011;10104;50.732;10.174;2022-11-21T01:23:33;3.47;;;1.97;;
19883;SDS011;10104;50.732;10.174;2022-11-21T01:25:54;6.77;;;1.73;;
19883;SDS011;10104;50.732;10.174;2022-11-21T01:28:20;6.37;;;1.80;;
19883;SDS011;10104;50.732;10.174;2022-11-21T01:30:42;2.90;;;1.57;;
19883;SDS011;10104;50.732;10.174;2022-11-21T01:33:03;2.13;;;1.30;;
19883;SDS011;10104;50.732;10.174;2022-11-21T01:35:24;2.40;;;1.33;;
19883;SDS011;10104;50.732;10.174;2022-11-21T01:37:46;4.13;;;1.50;;
19883;SDS011;10104;50.732;10.174;2022-11-21T01:40:08;2.37;;;1.30;;
19883;SDS011;10104;50.732;10.174;2022-11-21T01:42:42;4.97;;;1.50;;
19883;SDS011;10104;50.732;10.174;2022-11-21T01:48:07;2.17;;;1.50;;
19883;SDS011;10104;50.732;10.174;2022-11-21T01:50:28;3.53;;;1.40;;
19883;SDS011;10104;50.732;10.174;2022-11-21T01:52:50;2.20;;;1.30;;
19883;SDS011;10104;50.732;10.174;2022-11-21T01:55:11;4.67;;;1.40;;
19883;SDS011;10104;50.732;10.174;2022-11-21T01:57:37;3.57;;;1.40;;
19883;SDS011;10104;50.732;10.174;2022-11-21T02:02:27;2.27;;;1.40;;
19883;SDS011;10104;50.732;10.174;2022-11-21T02:04:50;5.37;;;1.20;;
19883;SDS011;10104;50.732;10.174;2022-11-21T02:07:13;2.30;;;0.97;;
19883;SDS011;10104;50.732;10.174;2022-11-21T02:09:38;3.03;;;1.20;;
19883;SDS011;10104;50.732;10.174;2022-11-21T02:12:07;6.37;;;1.30;;
19883;SDS011;10104;50.732;10.174;2022-11-21T02:14:34;2.70;;;1.00;;
19883;SDS011;10104;50.732;10.174;2022-11-21T02:16:57;2.50;;;0.90;;
19883;SDS011;10104;50.732;10.174;2022-11-21T02:19:25;3.70;;;1.10;;
19883;SDS011;10104;50.732;10.174;2022-11-21T02:22:00;2.60;;;1.20;;
19883;SDS011;10104;50.732;10.174;2022-11-21T02:27:15;2.60;;;1.03;;
19883;SDS011;10104;50.732;10.174;2022-11-21T02:29:37;2.07;;;1.00;;
19883;SDS011;10104;50.732;10.174;2022-11-21T02:32:03;2.07;;;0.90;;
19883;SDS011;10104;50.732;10.174;2022-11-21T02:34:25;4.00;;;1.50;;
19883;SDS011;10104;50.732;10.174;2022-11-21T02:36:47;2.90;;;1.10;;
19883;SDS011;10104;50.732;10.174;2022-11-21T02:39:10;3.17;;;1.23;;
19883;SDS011;10104;50.732;10.174;2022-11-21T02:47:36;4.07;;;1.00;;
19883;SDS011;10104;50.732;10.174;2022-11-21T02:52:35;1.17;;;0.80;;
19883;SDS011;10104;50.732;10.174;2022-11-21T02:54:57;3.53;;;1.07;;
19883;SDS011;10104;50.732;10.174;2022-11-21T02:57:18;1.87;;;1.00;;
19883;SDS011;10104;50.732;10.174;2022-11-21T02:59:40;3.53;;;1.10;;
19883;SDS011;10104;50.732;10.174;2022-11-21T03:02:01;3.00;;;1.10;;
19883;SDS011;10104;50.732;10.174;2022-11-21T03:04:23;2.40;;;0.97;;
19883;SDS011;10104;50.732;10.174;2022-11-21T03:06:44;3.40;;;0.80;;
19883;SDS011;10104;50.732;10.174;2022-11-21T03:09:06;2.23;;;1.00;;
19883;SDS011;10104;50.732;10.174;2022-11-21T03:11:27;1.73;;;0.80;;
19883;SDS011;10104;50.732;10.174;2022-11-21T03:13:49;1.97;;;1.00;;
19883;SDS011;10104;50.732;10.174;2022-11-21T03:16:10;1.80;;;0.93;;
19883;SDS011;10104;50.732;10.174;2022-11-21T03:18:32;3.77;;;1.10;;
19883;SDS011;10104;50.732;10.174;2022-11-21T03:20:53;2.20;;;1.20;;
19883;SDS011;10104;50.732;10.174;2022-11-21T03:23:15;2.00;;;0.90;;
19883;SDS011;10104;50.732;10.174;2022-11-21T03:25:36;1.33;;;0.90;;
19883;SDS011;10104;50.732;10.174;2022-11-21T03:27:58;6.67;;;1.20;;
19883;SDS011;10104;50.732;10.174;2022-11-21T03:30:19;1.53;;;1.10;;
19883;SDS011;10104;50.732;10.174;2022-11-21T03:32:42;1.73;;;1.07;;
19883;SDS011;10104;50.732;10.174;2022-11-21T03:35:04;1.50;;;1.10;;
19883;SDS011;10104;50.732;10.174;2022-11-21T03:37:26;1.67;;;1.20;;
19883;SDS011;10104;50.732;10.174;2022-11-21T03:39:47;2.10;;;1.13;;
19883;SDS011;10104;50.732;10.174;2022-11-21T03:42:09;2.03;;;1.40;;
19883;SDS011;10104;50.732;10.174;2022-11-21T03:44:30;2.37;;;1.20;;
19883;SDS011;10104;50.732;10.174;2022-11-21T03:46:51;3.90;;;1.20;;
19883;SDS011;10104;50.732;10.174;2022-11-21T03:49:13;1.33;;;1.03;;
19883;SDS011;10104;50.732;10.174;2022-11-21T03:51:36;1.33;;;1.23;;
19883;SDS011;10104;50.732;10.174;2022-11-21T03:53:58;1.20;;;1.00;;
19883;SDS011;10104;50.732;10.174;2022-11-21T03:56:20;1.77;;;1.30;;
19883;SDS011;10104;50.732;10.174;2022-11-21T03:58:42;0.87;;;0.80;;
19883;SDS011;10104;50.732;10.174;2022-11-21T04:01:04;0.80;;;0.80;;
19883;SDS011;10104;50.732;10.174;2022-11-21T04:03:26;1.20;;;0.90;;
19883;SDS011;10104;50.732;10.174;2022-11-21T04:05:47;0.70;;;0.70;;
19883;SDS011;10104;50.732;10.174;2022-11-21T04:08:08;1.30;;;1.13;;
19883;SDS011;10104;50.732;10.174;2022-11-21T04:10:30;0.60;;;0.60;;
19883;SDS011;10104;50.732;10.174;2022-11-21T04:12:51;0.60;;;0.60;;
19883;SDS011;10104;50.732;10.174;2022-11-21T04:15:13;2.20;;;0.90;;
19883;SDS011;10104;50.732;10.174;2022-11-21T04:17:34;0.63;;;0.63;;
19883;SDS011;10104;50.732;10.174;2022-11-21T04:19:58;0.70;;;0.70;;
19883;SDS011;10104;50.732;10.174;2022-11-21T04:22:19;0.67;;;0.67;;
19883;SDS011;10104;50.732;10.174;2022-11-21T04:24:41;0.93;;;0.67;;
19883;SDS011;10104;50.732;10.174;2022-11-21T04:27:02;1.03;;;0.67;;
19883;SDS011;10104;50.732;10.174;2022-11-21T04:29:24;0.50;;;0.50;;
19883;SDS011;10104;50.732;10.174;2022-11-21T04:31:45;0.80;;;0.60;;
19883;SDS011;10104;50.732;10.174;2022-11-21T04:34:06;0.53;;;0.53;;
19883;SDS011;10104;50.732;10.174;2022-11-21T04:36:28;0.67;;;0.60;;
19883;SDS011;10104;50.732;10.174;2022-11-21T04:38:50;0.93;;;0.70;;
19883;SDS011;10104;50.732;10.174;2022-11-21T04:41:11;0.60;;;0.60;;
19883;SDS011;10104;50.732;10.174;2022-11-21T04:43:32;0.90;;;0.73;;
19883;SDS011;10104;50.732;10.174;2022-11-21T04:45:54;1.70;;;1.13;;
19883;SDS011;10104;50.732;10.174;2022-11-21T04:48:15;4.13;;;2.57;;
19883;SDS011;10104;50.732;10.174;2022-11-21T04:50:37;1.20;;;1.03;;
19883;SDS011;10104;50.732;10.174;2022-11-21T04:52:58;0.67;;;0.60;;
19883;SDS011;10104;50.732;10.174;2022-11-21T04:55:21;9.23;;;3.97;;
19883;SDS011;10104;50.732;10.174;2022-11-21T04:57:44;2.27;;;1.40;;
19883;SDS011;10104;50.732;10.174;2022-11-21T05:00:06;4.00;;;2.10;;
19883;SDS011;10104;50.732;10.174;2022-11-21T05:02:28;4.53;;;2.70;;
19883;SDS011;10104;50.732;10.174;2022-11-21T05:04:50;1.80;;;1.30;;
19883;SDS011;10104;50.732;10.174;2022-11-21T05:07:11;5.43;;;3.73;;
19883;SDS011;10104;50.732;10.174;2022-11-21T05:09:33;2.30;;;1.50;;
19883;SDS011;10104;50.732;10.174;2022-11-21T05:11:54;1.50;;;1.20;;
19883;SDS011;10104;50.732;10.174;2022-11-21T05:14:34;2.20;;;1.50;;
19883;SDS011;10104;50.732;10.174;2022-11-21T05:16:56;1.50;;;1.40;;
19883;SDS011;10104;50.732;10.174;2022-11-21T05:19:17;1.20;;;1.10;;
19883;SDS011;10104;50.732;10.174;2022-11-21T05:21:39;1.90;;;1.70;;
19883;SDS011;10104;50.732;10.174;2022-11-21T05:24:00;2.17;;;1.63;;
19883;SDS011;10104;50.732;10.174;2022-11-21T05:26:22;2.80;;;1.90;;
19883;SDS011;10104;50.732;10.174;2022-11-21T05:28:43;2.23;;;2.03;;
19883;SDS011;10104;50.732;10.174;2022-11-21T05:31:04;2.70;;;2.30;;
19883;SDS011;10104;50.732;10.174;2022-11-21T05:33:26;3.10;;;2.80;;
19883;SDS011;10104;50.732;10.174;2022-11-21T05:35:47;2.87;;;2.63;;
19883;SDS011;10104;50.732;10.174;2022-11-21T05:38:09;3.00;;;2.70;;
19883;SDS011;10104;50.732;10.174;2022-11-21T05:40:31;3.10;;;2.80;;
19883;SDS011;10104;50.732;10.174;2022-11-21T05:42:52;4.67;;;3.10;;
19883;SDS011;10104;50.732;10.174;2022-11-21T05:45:32;3.30;;;3.00;;
19883;SDS011;10104;50.732;10.174;2022-11-21T05:47:53;5.07;;;3.63;;
19883;SDS011;10104;50.732;10.174;2022-11-21T05:50:15;3.80;;;3.03;;
19883;SDS011;10104;50.732;10.174;2022-11-21T05:52:37;4.63;;;3.30;;
19883;SDS011;10104;50.732;10.174;2022-11-21T05:54:58;3.93;;;3.50;;
19883;SDS011;10104;50.732;10.174;2022-11-21T05:57:20;4.67;;;3.47;;
19883;SDS011;10104;50.732;10.174;2022-11-21T05:59:41;3.73;;;3.10;;
19883;SDS011;10104;50.732;10.174;2022-11-21T06:02:02;3.50;;;3.20;;
19883;SDS011;10104;50.732;10.174;2022-11-21T06:04:42;2.83;;;2.57;;
19883;SDS011;10104;50.732;10.174;2022-11-21T06:07:04;2.70;;;2.33;;
19883;SDS011;10104;50.732;10.174;2022-11-21T06:09:26;2.53;;;2.30;;
19883;SDS011;10104;50.732;10.174;2022-11-21T06:11:48;5.50;;;2.93;;
19883;SDS011;10104;50.732;10.174;2022-11-21T06:14:09;2.93;;;2.20;;
19883;SDS011;10104;50.732;10.174;2022-11-21T06:16:30;2.90;;;2.60;;
19883;SDS011;10104;50.732;10.174;2022-11-21T06:18:52;2.33;;;1.90;;
19883;SDS011;10104;50.732;10.174;2022-11-21T06:21:19;2.37;;;2.13;;
19883;SDS011;10104;50.732;10.174;2022-11-21T06:23:43;2.70;;;2.20;;
19883;SDS011;10104;50.732;10.174;2022-11-21T06:26:06;2.57;;;2.37;;
19883;SDS011;10104;50.732;10.174;2022-11-21T06:28:32;4.67;;;2.30;;
19883;SDS011;10104;50.732;10.174;2022-11-21T06:30:55;2.63;;;2.30;;
19883;SDS011;10104;50.732;10.174;2022-11-21T06:33:18;3.90;;;3.03;;
19883;SDS011;10104;50.732;10.174;2022-11-21T06:35:40;3.83;;;3.10;;
19883;SDS011;10104;50.732;10.174;2022-11-21T06:38:02;6.57;;;3.70;;
19883;SDS011;10104;50.732;10.174;2022-11-21T06:40:23;5.77;;;4.47;;
19883;SDS011;10104;50.732;10.174;2022-11-21T06:42:45;11.67;;;7.87;;
19883;SDS011;10104;50.732;10.174;2022-11-21T06:45:07;7.40;;;5.33;;
19883;SDS011;10104;50.732;10.174;2022-11-21T06:47:32;5.40;;;4.90;;
19883;SDS011;10104;50.732;10.174;2022-11-21T06:49:54;4.80;;;4.40;;
19883;SDS011;10104;50.732;10.174;2022-11-21T06:52:15;7.60;;;5.67;;
19883;SDS011;10104;50.732;10.174;2022-11-21T06:54:37;7.40;;;6.43;;
19883;SDS011;10104;50.732;10.174;2022-11-21T06:56:58;6.40;;;5.70;;
19883;SDS011;10104;50.732;10.174;2022-11-21T06:59:20;4.83;;;4.30;;
19883;SDS011;10104;50.732;10.174;2022-11-21T07:01:41;5.00;;;4.30;;
19883;SDS011;10104;50.732;10.174;2022-11-21T07:04:03;6.93;;;5.83;;
19883;SDS011;10104;50.732;10.174;2022-11-21T07:06:24;7.40;;;6.23;;
19883;SDS011;10104;50.732;10.174;2022-11-21T07:08:47;6.40;;;5.30;;
19883;SDS011;10104;50.732;10.174;2022-11-21T07:11:33;5.13;;;4.50;;
19883;SDS011;10104;50.732;10.174;2022-11-21T07:13:55;5.60;;;4.63;;
19883;SDS011;10104;50.732;10.174;2022-11-21T07:16:16;5.47;;;4.63;;
19883;SDS011;10104;50.732;10.174;2022-11-21T07:18:38;5.57;;;4.63;;
19883;SDS011;10104;50.732;10.174;2022-11-21T07:21:01;4.20;;;3.80;;
19883;SDS011;10104;50.732;10.174;2022-11-21T07:23:25;3.87;;;3.57;;
19883;SDS011;10104;50.732;10.174;2022-11-21T07:25:48;4.63;;;3.60;;
19883;SDS011;10104;50.732;10.174;2022-11-21T07:28:09;3.97;;;3.57;;
19883;SDS011;10104;50.732;10.174;2022-11-21T07:30:31;4.53;;;4.07;;
19883;SDS011;10104;50.732;10.174;2022-11-21T07:32:56;4.90;;;4.30;;
19883;SDS011;10104;50.732;10.174;2022-11-21T07:35:18;4.80;;;4.40;;
19883;SDS011;10104;50.732;10.174;2022-11-21T07:37:40;8.27;;;5.30;;
19883;SDS011;10104;50.732;10.174;2022-11-21T07:40:01;9.50;;;5.53;;
19883;SDS011;10104;50.732;10.174;2022-11-21T07:42:23;8.73;;;5.50;;
19883;SDS011;10104;50.732;10.174;2022-11-21T07:44:44;6.33;;;4.70;;
19883;SDS011;10104;50.732;10.174;2022-11-21T07:47:06;4.30;;;3.90;;
19883;SDS011;10104;50.732;10.174;2022-11-21T07:49:27;5.77;;;5.13;;
19883;SDS011;10104;50.732;10.174;2022-11-21T07:51:49;12.47;;;8.93;;
19883;SDS011;10104;50.732;10.174;2022-11-21T07:54:11;7.30;;;5.53;;
19883;SDS011;10104;50.732;10.174;2022-11-21T07:56:32;8.47;;;6.13;;
19883;SDS011;10104;50.732;10.174;2022-11-21T07:58:54;9.77;;;7.33;;
19883;SDS011;10104;50.732;10.174;2022-11-21T08:01:15;6.80;;;5.77;;
19883;SDS011;10104;50.732;10.174;2022-11-21T08:03:36;7.07;;;5.80;;
19883;SDS011;10104;50.732;10.174;2022-11-21T08:06:02;5.80;;;5.17;;
19883;SDS011;10104;50.732;10.174;2022-11-21T08:08:24;7.30;;;6.23;;
19883;SDS011;10104;50.732;10.174;2022-11-21T08:10:46;17.77;;;13.23;;
19883;SDS011;10104;50.732;10.174;2022-11-21T08:13:07;25.60;;;16.60;;
19883;SDS011;10104;50.732;10.174;2022-11-21T08:15:29;23.83;;;17.13;;
19883;SDS011;10104;50.732;10.174;2022-11-21T08:17:51;23.17;;;16.57;;
19883;SDS011;10104;50.732;10.174;2022-11-21T08:20:12;21.80;;;13.20;;
19883;SDS011;10104;50.732;10.174;2022-11-21T08:22:38;8.13;;;6.70;;
19883;SDS011;10104;50.732;10.174;2022-11-21T08:25:00;5.67;;;5.17;;
19883;SDS011;10104;50.732;10.174;2022-11-21T08:27:22;5.80;;;4.80;;
19883;SDS011;10104;50.732;10.174;2022-11-21T08:29:44;5.13;;;4.63;;
19883;SDS011;10104;50.732;10.174;2022-11-21T08:32:06;5.77;;;4.50;;
19883;SDS011;10104;50.732;10.174;2022-11-21T08:34:29;5.00;;;4.43;;
19883;SDS011;10104;50.732;10.174;2022-11-21T08:36:51;4.57;;;4.17;;
19883;SDS011;10104;50.732;10.174;2022-11-21T08:39:13;4.07;;;3.67;;
19883;SDS011;10104;50.732;10.174;2022-11-21T08:41:35;4.30;;;3.90;;
19883;SDS011;10104;50.732;10.174;2022-11-21T08:44:15;5.30;;;4.20;;
19883;SDS011;10104;50.732;10.174;2022-11-21T08:46:36;4.67;;;4.27;;
19883;SDS011;10104;50.732;10.174;2022-11-21T08:48:58;5.93;;;5.23;;
19883;SDS011;10104;50.732;10.174;2022-11-21T08:51:20;9.73;;;5.90;;
19883;SDS011;10104;50.732;10.174;2022-11-21T08:53:42;6.70;;;4.97;;
19883;SDS011;10104;50.732;10.174;2022-11-21T08:56:04;5.80;;;5.20;;
19883;SDS011;10104;50.732;10.174;2022-11-21T08:58:25;20.03;;;14.90;;
19883;SDS011;10104;50.732;10.174;2022-11-21T09:00:46;16.97;;;14.00;;
19883;SDS011;10104;50.732;10.174;2022-11-21T09:03:08;16.60;;;13.10;;
19883;SDS011;10104;50.732;10.174;2022-11-21T09:05:30;13.20;;;11.20;;
19883;SDS011;10104;50.732;10.174;2022-11-21T09:07:55;10.23;;;8.40;;
19883;SDS011;10104;50.732;10.174;2022-11-21T09:10:17;6.20;;;5.60;;
19883;SDS011;10104;50.732;10.174;2022-11-21T09:12:39;6.10;;;5.50;;
19883;SDS011;10104;50.732;10.174;2022-11-21T09:15:00;7.40;;;5.97;;
19883;SDS011;10104;50.732;10.174;2022-11-21T09:17:41;6.53;;;5.93;;
19883;SDS011;10104;50.732;10.174;2022-11-21T09:20:20;6.93;;;5.70;;
19883;SDS011;10104;50.732;10.174;2022-11-21T09:22:42;6.20;;;5.53;;
19883;SDS011;10104;50.732;10.174;2022-11-21T09:25:04;4.40;;;4.00;;
19883;SDS011;10104;50.732;10.174;2022-11-21T09:27:26;7.47;;;4.97;;
19883;SDS011;10104;50.732;10.174;2022-11-21T09:29:47;4.87;;;3.50;;
19883;SDS011;10104;50.732;10.174;2022-11-21T09:32:14;4.40;;;3.60;;
19883;SDS011;10104;50.732;10.174;2022-11-21T09:34:35;3.53;;;3.23;;
19883;SDS011;10104;50.732;10.174;2022-11-21T09:36:57;5.53;;;4.40;;
19883;SDS011;10104;50.732;10.174;2022-11-21T09:39:18;6.80;;;5.00;;
19883;SDS011;10104;50.732;10.174;2022-11-21T09:46:54;7.63;;;6.30;;
19883;SDS011;10104;50.732;10.174;2022-11-21T09:49:31;7.00;;;6.30;;
19883;SDS011;10104;50.732;10.174;2022-11-21T09:52:01;8.40;;;7.00;;
19883;SDS011;10104;50.732;10.174;2022-11-21T09:54:30;7.27;;;6.57;;
19883;SDS011;10104;50.732;10.174;2022-11-21T09:56:54;7.23;;;5.30;;
19883;SDS011;10104;50.732;10.174;2022-11-21T10:01:54;5.70;;;5.00;;
19883;SDS011;10104;50.732;10.174;2022-11-21T10:04:16;6.20;;;5.60;;
19883;SDS011;10104;50.732;10.174;2022-11-21T10:06:41;6.70;;;5.20;;
19883;SDS011;10104;50.732;10.174;2022-11-21T10:09:22;8.63;;;7.03;;
19883;SDS011;10104;50.732;10.174;2022-11-21T10:12:17;10.93;;;7.70;;
19883;SDS011;10104;50.732;10.174;2022-11-21T10:17:23;7.73;;;6.73;;
19883;SDS011;10104;50.732;10.174;2022-11-21T10:22:34;9.73;;;7.87;;
19883;SDS011;10104;50.732;10.174;2022-11-21T10:25:00;8.83;;;7.93;;
19883;SDS011;10104;50.732;10.174;2022-11-21T10:27:36;8.40;;;6.60;;
19883;SDS011;10104;50.732;10.174;2022-11-21T10:32:36;7.07;;;6.30;;
19883;SDS011;10104;50.732;10.174;2022-11-21T10:35:01;16.57;;;11.93;;
19883;SDS011;10104;50.732;10.174;2022-11-21T10:37:37;10.60;;;7.57;;
19883;SDS011;10104;50.732;10.174;2022-11-21T10:40:46;9.13;;;8.17;;
19883;SDS011;10104;50.732;10.174;2022-11-21T10:45:20;8.73;;;7.53;;
19883;SDS011;10104;50.732;10.174;2022-11-21T10:47:43;15.10;;;10.40;;
19883;SDS011;10104;50.732;10.174;2022-11-21T10:52:55;12.30;;;8.53;;
19883;SDS011;10104;50.732;10.174;2022-11-21T10:55:20;9.03;;;7.40;;
19883;SDS011;10104;50.732;10.174;2022-11-21T10:57:43;9.10;;;7.17;;
19883;SDS011;10104;50.732;10.174;2022-11-21T11:02:34;13.43;;;9.07;;
19883;SDS011;10104;50.732;10.174;2022-11-21T11:07:35;6.50;;;5.63;;
19883;SDS011;10104;50.732;10.174;2022-11-21T11:12:48;6.50;;;5.90;;
19883;SDS011;10104;50.732;10.174;2022-11-21T11:16:23;5.97;;;5.37;;
19883;SDS011;10104;50.732;10.174;2022-11-21T11:21:28;9.13;;;8.23;;
19883;SDS011;10104;50.732;10.174;2022-11-21T11:26:31;9.80;;;8.80;;
19883;SDS011;10104;50.732;10.174;2022-11-21T11:28:58;9.57;;;7.57;;
19883;SDS011;10104;50.732;10.174;2022-11-21T11:31:52;7.03;;;6.40;;
19883;SDS011;10104;50.732;10.174;2022-11-21T11:34:45;8.20;;;7.50;;
19883;SDS011;10104;50.732;10.174;2022-11-21T11:37:12;10.67;;;8.53;;
19883;SDS011;10104;50.732;10.174;2022-11-21T11:45:29;53.70;;;28.87;;
19883;SDS011;10104;50.732;10.174;2022-11-21T11:48:22;30.67;;;16.57;;
19883;SDS011;10104;50.732;10.174;2022-11-21T11:50:50;49.60;;;27.00;;
19883;SDS011;10104;50.732;10.174;2022-11-21T11:53:19;59.37;;;32.43;;
19883;SDS011;10104;50.732;10.174;2022-11-21T11:55:50;51.80;;;28.80;;
19883;SDS011;10104;50.732;10.174;2022-11-21T11:58:23;7.37;;;5.67;;
19883;SDS011;10104;50.732;10.174;2022-11-21T12:00:54;7.10;;;6.17;;
19883;SDS011;10104;50.732;10.174;2022-11-21T12:03:20;7.17;;;6.47;;
19883;SDS011;10104;50.732;10.174;2022-11-21T12:08:43;8.93;;;7.37;;
19883;SDS011;10104;50.732;10.174;2022-11-21T12:14:12;8.73;;;7.37;;
19883;SDS011;10104;50.732;10.174;2022-11-21T12:16:58;14.77;;;9.83;;
19883;SDS011;10104;50.732;10.174;2022-11-21T12:19:20;131.13;;;61.97;;
19883;SDS011;10104;50.732;10.174;2022-11-21T12:21:42;52.30;;;29.70;;
19883;SDS011;10104;50.732;10.174;2022-11-21T12:24:03;12.10;;;9.50;;
19883;SDS011;10104;50.732;10.174;2022-11-21T12:37:28;24.07;;;17.00;;
19883;SDS011;10104;50.732;10.174;2022-11-21T12:40:20;12.53;;;10.03;;
19883;SDS011;10104;50.732;10.174;2022-11-21T12:57:35;12.40;;;10.00;;
19883;SDS011;10104;50.732;10.174;2022-11-21T13:00:31;27.60;;;19.67;;
19883;SDS011;10104;50.732;10.174;2022-11-21T13:03:19;13.40;;;10.63;;
19883;SDS011;10104;50.732;10.174;2022-11-21T13:05:50;9.87;;;8.23;;
19883;SDS011;10104;50.732;10.174;2022-11-21T13:08:18;46.13;;;38.13;;
19883;SDS011;10104;50.732;10.174;2022-11-21T13:10:48;12.27;;;9.70;;
19883;SDS011;10104;50.732;10.174;2022-11-21T13:13:41;10.17;;;8.40;;
19883;SDS011;10104;50.732;10.174;2022-11-21T13:16:08;15.27;;;7.50;;
19883;SDS011;10104;50.732;10.174;2022-11-21T13:18:42;10.93;;;8.40;;
19883;SDS011;10104;50.732;10.174;2022-11-21T13:21:08;9.43;;;8.43;;
19883;SDS011;10104;50.732;10.174;2022-11-21T13:24:10;9.37;;;8.30;;
19883;SDS011;10104;50.732;10.174;2022-11-21T13:31:29;10.37;;;9.37;;
19883;SDS011;10104;50.732;10.174;2022-11-21T13:33:52;13.63;;;8.80;;
19883;SDS011;10104;50.732;10.174;2022-11-21T13:41:17;7.47;;;6.77;;
19883;SDS011;10104;50.732;10.174;2022-11-21T13:47:28;8.17;;;7.30;;
19883;SDS011;10104;50.732;10.174;2022-11-21T13:49:55;7.60;;;6.60;;
19883;SDS011;10104;50.732;10.174;2022-11-21T13:54:55;7.10;;;6.27;;
19883;SDS011;10104;50.732;10.174;2022-11-21T13:59:58;7.50;;;5.90;;
19883;SDS011;10104;50.732;10.174;2022-11-21T14:08:19;9.63;;;7.30;;
19883;SDS011;10104;50.732;10.174;2022-11-21T14:10:43;8.67;;;7.70;;
19883;SDS011;10104;50.732;10.174;2022-11-21T14:13:13;8.07;;;6.63;;
19883;SDS011;10104;50.732;10.174;2022-11-21T14:18:24;8.43;;;7.07;;
19883;SDS011;10104;50.732;10.174;2022-11-21T14:20:53;9.27;;;8.37;;
19883;SDS011;10104;50.732;10.174;2022-11-21T14:23:18;11.97;;;9.40;;
19883;SDS011;10104;50.732;10.174;2022-11-21T14:25:46;16.10;;;10.53;;
19883;SDS011;10104;50.732;10.174;2022-11-21T14:28:12;36.20;;;24.20;;
19883;SDS011;10104;50.732;10.174;2022-11-21T14:30:41;14.47;;;10.37;;
19883;SDS011;10104;50.732;10.174;2022-11-21T14:33:24;18.80;;;12.63;;
19883;SDS011;10104;50.732;10.174;2022-11-21T14:38:22;8.77;;;6.17;;
19883;SDS011;10104;50.732;10.174;2022-11-21T14:40:44;6.30;;;5.43;;
19883;SDS011;10104;50.732;10.174;2022-11-21T14:45:53;7.43;;;6.30;;
19883;SDS011;10104;50.732;10.174;2022-11-21T14:48:14;5.80;;;5.10;;
19883;SDS011;10104;50.732;10.174;2022-11-21T14:50:36;6.67;;;5.23;;
19883;SDS011;10104;50.732;10.174;2022-11-21T14:52:58;6.20;;;5.33;;
19883;SDS011;10104;50.732;10.174;2022-11-21T14:55:22;6.23;;;4.83;;
19883;SDS011;10104;50.732;10.174;2022-11-21T14:57:51;10.03;;;7.67;;
19883;SDS011;10104;50.732;10.174;2022-11-21T15:00:14;14.27;;;10.47;;
19883;SDS011;10104;50.732;10.174;2022-11-21T15:02:59;16.80;;;11.87;;
19883;SDS011;10104;50.732;10.174;2022-11-21T15:05:21;24.37;;;17.13;;
19883;SDS011;10104;50.732;10.174;2022-11-21T15:08:08;17.50;;;12.70;;
19883;SDS011;10104;50.732;10.174;2022-11-21T15:10:50;21.33;;;15.37;;
19883;SDS011;10104;50.732;10.174;2022-11-21T15:13:12;22.77;;;15.30;;
19883;SDS011;10104;50.732;10.174;2022-11-21T15:18:03;17.30;;;12.47;;
19883;SDS011;10104;50.732;10.174;2022-11-21T15:20:47;14.87;;;11.30;;
19883;SDS011;10104;50.732;10.174;2022-11-21T15:23:27;10.60;;;8.83;;
19883;SDS011;10104;50.732;10.174;2022-11-21T15:25:50;16.47;;;12.37;;
19883;SDS011;10104;50.732;10.174;2022-11-21T15:28:15;16.13;;;12.70;;
19883;SDS011;10104;50.732;10.174;2022-11-21T15:30:38;13.00;;;9.97;;
19883;SDS011;10104;50.732;10.174;2022-11-21T15:33:10;13.53;;;10.67;;
19883;SDS011;10104;50.732;10.174;2022-11-21T15:35:57;10.43;;;8.20;;
19883;SDS011;10104;50.732;10.174;2022-11-21T15:38:40;12.53;;;9.00;;
19883;SDS011;10104;50.732;10.174;2022-11-21T15:46:08;16.27;;;10.63;;
19883;SDS011;10104;50.732;10.174;2022-11-21T15:48:33;13.57;;;10.23;;
19883;SDS011;10104;50.732;10.174;2022-11-21T15:50:55;10.67;;;8.73;;
19883;SDS011;10104;50.732;10.174;2022-11-21T15:53:19;10.60;;;8.03;;
19883;SDS011;10104;50.732;10.174;2022-11-21T15:55:40;11.87;;;8.40;;
19883;SDS011;10104;50.732;10.174;2022-11-21T15:58:02;12.93;;;8.97;;
19883;SDS011;10104;50.732;10.174;2022-11-21T16:00:23;11.47;;;9.17;;
19883;SDS011;10104;50.732;10.174;2022-11-21T16:02:45;14.20;;;9.10;;
19883;SDS011;10104;50.732;10.174;2022-11-21T16:05:11;10.53;;;8.07;;
19883;SDS011;10104;50.732;10.174;2022-11-21T16:07:34;10.47;;;8.17;;
19883;SDS011;10104;50.732;10.174;2022-11-21T16:09:55;14.70;;;9.60;;
19883;SDS011;10104;50.732;10.174;2022-11-21T16:12:17;14.23;;;9.57;;
19883;SDS011;10104;50.732;10.174;2022-11-21T16:14:38;11.63;;;9.47;;
19883;SDS011;10104;50.732;10.174;2022-11-21T16:16:59;14.17;;;10.53;;
19883;SDS011;10104;50.732;10.174;2022-11-21T16:19:21;15.57;;;11.93;;
19883;SDS011;10104;50.732;10.174;2022-11-21T16:21:42;19.10;;;13.70;;
19883;SDS011;10104;50.732;10.174;2022-11-21T16:24:04;19.40;;;13.13;;
19883;SDS011;10104;50.732;10.174;2022-11-21T16:26:26;13.93;;;7.27;;